Time;durP1;ratioP1;P1;durP2;ratioP2;P2;SDS_P1;SDS_P2;PMS_P1;PMS_P2;Temp;Humidity;BMP_temperature;BMP_pressure;BME280_temperature;BME280_humidity;BME280_pressure;Samples;Min_cycle;Max_cycle;Signal;HPM_P1;HPM_P2
2023/09/13 00:15:46;;;;;;;17.90;6.35;;;;;;;22.98;50.15;100041.53;42006375;27;20049;-79
2023/09/13 00:35:46;;;;;;;14.15;6.15;;;;;;;22.86;50.40;100026.81;42022344;28;20032;-78
2023/09/13 00:55:49;;;;;;;15.02;6.68;;;;;;;22.56;50.93;100018.03;42018066;28;20032;-80
2023/09/13 01:16:10;;;;;;;15.18;6.85;;;;;;;22.79;50.98;100058.22;41975378;28;20058;-83
2023/09/13 01:36:10;;;;;;;13.48;6.32;;;;;;;22.46;51.28;100054.09;42005291;28;20094;-83
2023/09/13 01:56:11;;;;;;;16.45;6.47;;;;;;;22.28;52.37;100091.66;42024088;28;20065;-79
2023/09/13 02:16:12;;;;;;;15.95;6.63;;;;;;;22.52;51.72;100079.94;42014862;28;20044;-79
2023/09/13 02:36:13;;;;;;;17.05;6.50;;;;;;;22.26;51.84;100072.50;42014330;27;20116;-77
2023/09/13 02:56:15;;;;;;;13.70;6.53;;;;;;;21.88;51.64;100043.19;42021669;28;20040;-77
2023/09/13 03:16:19;;;;;;;17.20;7.18;;;;;;;22.30;51.42;100078.34;42011842;28;20044;-87
2023/09/13 03:36:20;;;;;;;18.48;6.70;;;;;;;21.88;52.18;100068.72;42003841;28;20058;-81
2023/09/13 03:56:20;;;;;;;14.65;6.90;;;;;;;21.19;53.97;100076.16;42016270;28;20048;-81
2023/09/13 04:16:24;;;;;;;12.43;6.50;;;;;;;23.03;47.92;99977.75;41990469;28;20500;-87
2023/09/13 04:36:24;;;;;;;12.77;6.82;;;;;;;24.12;49.43;100066.38;41994142;28;20045;-81
2023/09/13 04:56:25;;;;;;;24.05;6.18;;;;;;;24.15;48.61;100068.75;42002400;28;20048;-82
2023/09/13 05:16:25;;;;;;;19.77;6.40;;;;;;;23.80;50.04;100088.72;41967934;28;20049;-76
2023/09/13 05:36:25;;;;;;;19.83;6.25;;;;;;;24.22;48.24;100085.69;41989749;27;20051;-81
2023/09/13 05:56:26;;;;;;;25.98;8.60;;;;;;;24.33;47.27;100082.03;42003834;28;20116;-80
2023/09/13 06:16:28;;;;;;;26.90;9.32;;;;;;;24.75;47.18;100131.00;42058766;27;20063;-76
2023/09/13 06:36:29;;;;;;;18.98;7.30;;;;;;;24.77;47.05;100126.41;42029036;27;20063;-77
2023/09/13 06:56:30;;;;;;;17.77;6.57;;;;;;;24.92;46.03;100118.78;42051825;28;20413;-77
2023/09/13 07:16:31;;;;;;;14.38;5.68;;;;;;;25.02;45.26;100130.13;42029468;28;20036;-77
2023/09/13 07:36:31;;;;;;;17.15;5.78;;;;;;;24.97;46.14;100127.09;42056184;27;20525;-76
2023/09/13 07:56:33;;;;;;;10.90;5.53;;;;;;;25.10;47.31;100142.63;42010524;28;20054;-76
2023/09/13 08:16:35;;;;;;;15.40;5.65;;;;;;;25.03;47.93;100123.03;42022315;28;20115;-75
2023/09/13 08:36:35;;;;;;;15.00;5.35;;;;;;;25.23;47.61;100152.84;42018649;27;20040;-76
2023/09/13 08:56:36;;;;;;;10.43;4.57;;;;;;;25.34;48.40;100157.06;41987640;28;20052;-75
2023/09/13 09:16:38;;;;;;;14.27;5.28;;;;;;;25.46;48.07;100155.88;41978847;28;20037;-76
2023/09/13 09:36:43;;;;;;;10.73;5.10;;;;;;;25.54;47.65;100155.13;41987213;28;20053;-73
2023/09/13 09:56:44;;;;;;;15.70;5.70;;;;;;;25.79;45.71;100150.84;41979796;27;20037;-70
2023/09/13 10:16:44;;;;;;;13.70;5.88;;;;;;;25.66;44.86;100086.75;41980726;27;20048;-72
2023/09/13 10:36:55;;;;;;;8.88;5.63;;;;;;;26.18;43.85;100120.41;42004361;27;20059;-73
2023/09/13 10:56:57;;;;;;;17.00;5.72;;;;;;;26.28;42.97;100093.75;41991942;28;20064;-71
2023/09/13 11:17:38;;;;;;;13.38;5.82;;;;;;;26.63;42.27;100103.34;42005536;28;20040;-74
2023/09/13 11:37:38;;;;;;;11.30;5.57;;;;;;;27.14;40.85;100086.50;41999584;27;20041;-72
2023/09/13 11:57:52;;;;;;;17.33;5.80;;;;;;;27.18;40.49;100037.34;42009195;28;20060;-72
2023/09/13 12:18:01;;;;;;;13.68;5.55;;;;;;;27.44;39.95;100046.97;42022696;28;20045;-72
2023/09/13 12:38:02;;;;;;;9.68;5.32;;;;;;;27.93;37.23;100030.88;42055987;28;20044;-71
2023/09/13 12:58:07;;;;;;;7.88;4.95;;;;;;;28.24;36.14;100022.13;42060983;28;20068;-74
2023/09/13 13:18:09;;;;;;;7.25;4.50;;;;;;;28.78;34.15;99996.50;42044267;28;20094;-70
2023/09/13 13:38:10;;;;;;;5.60;4.60;;;;;;;28.80;34.72;99959.84;42035805;27;20050;-74
2023/09/13 13:58:10;;;;;;;9.10;4.63;;;;;;;28.78;35.88;99971.69;42011938;28;20067;-74
2023/09/13 14:18:11;;;;;;;8.93;5.10;;;;;;;28.53;36.97;99940.72;42000893;27;20060;-73
2023/09/13 14:38:17;;;;;;;12.67;4.70;;;;;;;28.95;34.16;99927.06;42065864;27;20064;-75
2023/09/13 14:58:19;;;;;;;6.45;4.70;;;;;;;28.65;34.67;99945.63;42027021;28;20086;-76
2023/09/13 15:18:19;;;;;;;98.47;9.57;;;;;;;28.05;36.62;99882.34;42027591;28;20067;-73
2023/09/13 15:38:21;;;;;;;16.55;5.35;;;;;;;28.17;35.58;99900.56;42013990;27;20048;-73
2023/09/13 15:58:22;;;;;;;9.77;4.23;;;;;;;28.23;32.99;99918.47;42005093;28;21875;-74
2023/09/13 16:18:23;;;;;;;8.32;4.97;;;;;;;28.29;34.03;99931.06;42008923;28;20291;-74
2023/09/13 16:38:24;;;;;;;15.60;5.00;;;;;;;27.88;34.15;99894.03;41992057;27;20089;-74
2023/09/13 16:58:27;;;;;;;11.32;5.43;;;;;;;27.88;35.77;99940.13;41995645;27;20054;-80
2023/09/13 17:18:28;;;;;;;15.77;6.50;;;;;;;27.59;38.67;99916.81;42022573;28;20070;-75
2023/09/13 17:38:29;;;;;;;15.05;7.38;;;;;;;27.08;40.39;99856.81;41982197;27;20085;-73
2023/09/13 17:58:31;;;;;;;10.53;7.90;;;;;;;27.60;41.55;99921.09;42021103;27;20044;-73
2023/09/13 18:18:36;;;;;;;14.52;7.85;;;;;;;27.44;42.30;99953.91;41994013;27;20148;-74
2023/09/13 18:38:37;;;;;;;15.30;9.00;;;;;;;27.37;43.00;99988.31;42038727;27;20064;-73
2023/09/13 18:58:43;;;;;;;16.50;8.70;;;;;;;27.12;44.84;99996.34;42009098;28;20127;-75
2023/09/13 19:18:44;;;;;;;10.25;8.30;;;;;;;26.80;45.14;99970.59;42031422;28;20494;-75
2023/09/13 19:38:45;;;;;;;15.02;8.73;;;;;;;26.49;44.81;99939.38;42007001;27;20052;-74
2023/09/13 19:58:47;;;;;;;11.90;9.05;;;;;;;26.77;44.98;99989.50;42029309;28;20506;-75
2023/09/13 20:18:48;;;;;;;14.07;8.98;;;;;;;26.47;45.23;99944.81;42051844;28;20563;-75
2023/09/13 20:38:48;;;;;;;13.82;9.95;;;;;;;26.31;46.56;99963.41;42057778;27;20090;-75
2023/09/13 20:58:50;;;;;;;11.82;9.15;;;;;;;26.43;46.41;99945.34;42040505;27;20101;-74
2023/09/13 21:18:50;;;;;;;13.30;9.10;;;;;;;26.23;47.14;99966.84;42004873;27;20117;-75
2023/09/13 21:38:51;;;;;;;15.50;8.73;;;;;;;25.93;47.84;99970.88;42009725;27;20097;-74
2023/09/13 21:58:51;;;;;;;16.15;9.77;;;;;;;25.65;48.57;99960.50;42018904;27;20498;-74
2023/09/13 22:18:52;;;;;;;17.30;9.88;;;;;;;25.85;49.01;99992.91;42012416;27;20530;-75
2023/09/13 22:38:53;;;;;;;15.48;8.90;;;;;;;25.67;48.91;99956.69;42016083;27;20144;-73
2023/09/13 22:58:54;;;;;;;11.85;8.60;;;;;;;25.72;48.75;99978.25;42024285;28;20051;-73
2023/09/13 23:18:56;;;;;;;9.30;8.18;;;;;;;25.66;49.13;99989.50;42044352;27;20109;-74
2023/09/13 23:38:56;;;;;;;11.93;8.70;;;;;;;25.67;49.79;99972.63;42029222;28;20051;-75
2023/09/13 23:58:57;;;;;;;10.02;6.30;;;;;;;25.41;49.98;100007.94;42024860;28;20047;-72
